Time;durP1;ratioP1;P1;durP2;ratioP2;P2;SDS_P1;SDS_P2;PMS_P1;PMS_P2;Temp;Humidity;BMP_temperature;BMP_pressure;BME280_temperature;BME280_humidity;BME280_pressure;Samples;Min_cycle;Max_cycle;Signal;HPM_P1;HPM_P2
2023/01/01 00:01:40;;;;;;;;;;;;;;;;;;4991545;28;1198;-39
2023/01/01 00:04:11;;;;;;;;;;;;;;;;;;4991553;28;1923;-39
2023/01/01 00:06:38;;;;;;;;;;;;;;;;;;4991618;28;1332;-39
2023/01/01 00:12:02;;;;;;;;;;;;;;;;;;4954648;28;1952;-38
2023/01/01 00:14:29;;;;;;;;;;;;;;;;;;4991846;28;966;-38
2023/01/01 00:16:56;;;;;;;;;;;;;;;;;;4991451;28;1402;-38
2023/01/01 00:19:23;;;;;;;;;;;;;;;;;;4991638;28;1083;-38
2023/01/01 00:21:50;;;;;;;;;;;;;;;;;;4991424;28;1146;-38
2023/01/01 00:24:17;;;;;;;;;;;;;;;;;;4989902;28;1963;-38
2023/01/01 00:26:44;;;;;;;;;;;;;;;;;;4991549;28;993;-38
2023/01/01 00:29:12;;;;;;;;;;;;;;;;;;4991348;28;1140;-38
2023/01/01 00:31:39;;;;;;;;;;;;;;;;;;4991443;28;966;-38
2023/01/01 00:34:08;;;;;;;;;;;;;;;;;;4977336;28;1295;-38
2023/01/01 00:36:36;;;;;;;;;;;;;;;;;;4972828;28;1075;-39
2023/01/01 00:39:03;;;;;;;;;;;;;;;;;;4975728;28;1089;-38
2023/01/01 00:41:30;;;;;;;;;;;;;;;;;;4975443;28;1243;-38
2023/01/01 00:43:57;;;;;;;;;;;;;;;;;;4975789;28;1985;-38
2023/01/01 00:46:25;;;;;;;;;;;;;;;;;;4975528;28;966;-38
2023/01/01 00:48:52;;;;;;;;;;;;;;;;;;4975565;28;1031;-38
2023/01/01 00:51:19;;;;;;;;;;;;;;;;;;4975225;28;937;-38
2023/01/01 00:53:46;;;;;;;;;;;;;;;;;;4975348;28;1329;-39
2023/01/01 00:56:14;;;;;;;;;;;;;;;;;;4975526;28;956;-38
2023/01/01 00:58:41;;;;;;;;;;;;;;;;;;4975192;28;1040;-39
2023/01/01 01:01:09;;;;;;;;;;;;;;;;;;4975280;28;1208;-38
2023/01/01 01:03:39;;;;;;;;;;;;;;;;;;4975196;28;1910;-38
2023/01/01 01:06:08;;;;;;;;;;;;;;;;;;4975034;28;1158;-38
2023/01/01 01:08:36;;;;;;;;;;;;;;;;;;4975338;28;958;-38
2023/01/01 01:11:04;;;;;;;;;;;;;;;;;;4975218;28;1377;-38
2023/01/01 01:13:32;;;;;;;;;;;;;;;;;;4975249;28;1012;-38
2023/01/01 01:15:59;;;;;;;;;;;;;;;;;;4975257;28;922;-38
2023/01/01 01:18:26;;;;;;;;;;;;;;;;;;4974731;28;1159;-38
2023/01/01 01:20:54;;;;;;;;;;;;;;;;;;4975002;28;1056;-39
2023/01/01 01:23:21;;;;;;;;;;;;;;;;;;4974648;28;1914;-38
2023/01/01 01:25:48;;;;;;;;;;;;;;;;;;4974759;28;1208;-41
2023/01/01 01:28:15;;;;;;;;;;;;;;;;;;4974742;28;973;-39
2023/01/01 01:30:42;;;;;;;;;;;;;;;;;;4974522;28;1229;-38
2023/01/01 01:33:09;;;;;;;;;;;;;;;;;;4993889;28;1121;-39
2023/01/01 01:35:36;;;;;;;;;;;;;;;;;;4993763;28;1080;-38
2023/01/01 01:38:03;;;;;;;;;;;;;;;;;;4994217;28;1071;-38
2023/01/01 01:40:31;;;;;;;;;;;;;;;;;;4993988;28;987;-39
2023/01/01 01:42:59;;;;;;;;;;;;;;;;;;4993687;28;1322;-38
2023/01/01 01:45:26;;;;;;;;;;;;;;;;;;4993529;28;1971;-38
2023/01/01 01:47:59;;;;;;;;;;;;;;;;;;4992486;28;1529;-38
2023/01/01 01:50:36;;;;;;;;;;;;;;;;;;4993865;28;1022;-38
2023/01/01 01:53:12;;;;;;;;;;;;;;;;;;4993931;28;970;-37
2023/01/01 01:55:42;;;;;;;;;;;;;;;;;;4993700;28;1417;-39
2023/01/01 01:58:12;;;;;;;;;;;;;;;;;;4993469;28;1159;-38
2023/01/01 02:00:39;;;;;;;;;;;;;;;;;;4993555;28;1066;-37
2023/01/01 02:03:26;;;;;;;;;;;;;;;;;;4993771;28;1170;-38
2023/01/01 02:05:54;;;;;;;;;;;;;;;;;;4986650;28;1866;-38
2023/01/01 02:08:22;;;;;;;;;;;;;;;;;;4993233;28;1072;-38
2023/01/01 02:10:49;;;;;;;;;;;;;;;;;;4993124;28;1043;-39
2023/01/01 02:13:16;;;;;;;;;;;;;;;;;;4993372;28;1304;-40
2023/01/01 02:15:50;;;;;;;;;;;;;;;;;;4993288;28;894;-38
2023/01/01 02:18:19;;;;;;;;;;;;;;;;;;4993293;28;1049;-38
2023/01/01 02:20:52;;;;;;;;;;;;;;;;;;4993216;28;1303;-38
2023/01/01 02:23:22;;;;;;;;;;;;;;;;;;4993066;28;1091;-39
2023/01/01 02:26:08;;;;;;;;;;;;;;;;;;4993129;28;1977;-38
2023/01/01 02:28:49;;;;;;;;;;;;;;;;;;4993389;28;1169;-39
2023/01/01 02:31:19;;;;;;;;;;;;;;;;;;4992692;28;1013;-38
2023/01/01 02:33:51;;;;;;;;;;;;;;;;;;4992926;28;1207;-39
2023/01/01 02:36:18;;;;;;;;;;;;;;;;;;4992842;28;924;-38
2023/01/01 02:38:48;;;;;;;;;;;;;;;;;;4993216;28;1134;-40
2023/01/01 02:41:20;;;;;;;;;;;;;;;;;;4992588;28;1091;-38
2023/01/01 02:43:47;;;;;;;;;;;;;;;;;;4992663;28;1989;-38
2023/01/01 02:46:14;;;;;;;;;;;;;;;;;;4992841;28;1011;-39
2023/01/01 02:48:42;;;;;;;;;;;;;;;;;;4992880;28;1000;-38
2023/01/01 02:51:12;;;;;;;;;;;;;;;;;;4992945;28;997;-39
2023/01/01 02:53:58;;;;;;;;;;;;;;;;;;4992801;28;1161;-38
2023/01/01 02:56:31;;;;;;;;;;;;;;;;;;4992386;28;904;-38
2023/01/01 03:01:47;;;;;;;;;;;;;;;;;;4974895;28;1209;-39
2023/01/01 03:04:20;;;;;;;;;;;;;;;;;;4992290;28;1992;-38
2023/01/01 03:06:51;;;;;;;;;;;;;;;;;;4992073;28;995;-38
2023/01/01 03:09:31;;;;;;;;;;;;;;;;;;4992394;28;1336;-39
2023/01/01 03:12:10;;;;;;;;;;;;;;;;;;4992336;28;1019;-37
2023/01/01 03:14:53;;;;;;;;;;;;;;;;;;4992501;28;1076;-38
2023/01/01 03:17:25;;;;;;;;;;;;;;;;;;4992100;28;924;-39
2023/01/01 03:19:54;;;;;;;;;;;;;;;;;;4992109;28;925;-38
2023/01/01 03:22:24;;;;;;;;;;;;;;;;;;4991998;28;1109;-39
2023/01/01 03:24:53;;;;;;;;;;;;;;;;;;4992003;28;1977;-38
2023/01/01 03:27:20;;;;;;;;;;;;;;;;;;4991698;28;1375;-39
2023/01/01 03:29:49;;;;;;;;;;;;;;;;;;4992003;28;930;-38
2023/01/01 03:32:20;;;;;;;;;;;;;;;;;;4992022;28;1010;-39
2023/01/01 03:34:51;;;;;;;;;;;;;;;;;;4991965;28;1045;-39
2023/01/01 03:37:25;;;;;;;;;;;;;;;;;;4992052;28;1007;-39
2023/01/01 03:39:55;;;;;;;;;;;;;;;;;;4991888;28;1210;-38
2023/01/01 03:42:33;;;;;;;;;;;;;;;;;;4991641;28;1194;-39
2023/01/01 03:45:03;;;;;;;;;;;;;;;;;;4991882;28;1925;-38
2023/01/01 03:47:31;;;;;;;;;;;;;;;;;;4991840;28;1084;-38
2023/01/01 03:49:58;;;;;;;;;;;;;;;;;;4991737;28;1021;-38
2023/01/01 03:52:38;;;;;;;;;;;;;;;;;;4991765;28;907;-39
2023/01/01 03:55:08;;;;;;;;;;;;;;;;;;4991733;28;927;-38
2023/01/01 03:57:53;;;;;;;;;;;;;;;;;;4991753;28;1018;-39
2023/01/01 04:00:22;;;;;;;;;;;;;;;;;;4991743;28;907;-38
2023/01/01 04:02:58;;;;;;;;;;;;;;;;;;4991815;28;1004;-37
2023/01/01 04:05:25;;;;;;;;;;;;;;;;;;4991604;28;1988;-38
2023/01/01 04:07:53;;;;;;;;;;;;;;;;;;4991952;28;1362;-38
2023/01/01 04:10:21;;;;;;;;;;;;;;;;;;4991415;28;979;-37
2023/01/01 04:12:51;;;;;;;;;;;;;;;;;;4994969;28;1022;-38
2023/01/01 04:15:20;;;;;;;;;;;;;;;;;;4995418;28;1218;-37
2023/01/01 04:17:47;;;;;;;;;;;;;;;;;;4995398;28;1209;-37
2023/01/01 04:20:15;;;;;;;;;;;;;;;;;;4995612;28;1346;-37
2023/01/01 04:22:42;;;;;;;;;;;;;;;;;;4995739;28;1119;-38
2023/01/01 04:25:09;;;;;;;;;;;;;;;;;;4994824;28;2066;-37
2023/01/01 04:27:37;;;;;;;;;;;;;;;;;;4995227;28;1086;-37
2023/01/01 04:30:05;;;;;;;;;;;;;;;;;;4995138;28;1280;-38
2023/01/01 04:32:33;;;;;;;;;;;;;;;;;;4995134;28;1232;-38
2023/01/01 04:35:00;;;;;;;;;;;;;;;;;;4995246;28;1330;-38
2023/01/01 04:37:27;;;;;;;;;;;;;;;;;;4995211;28;1320;-38
2023/01/01 04:39:55;;;;;;;;;;;;;;;;;;4995109;28;1371;-38
2023/01/01 04:42:22;;;;;;;;;;;;;;;;;;4995070;28;1905;-38
2023/01/01 04:44:49;;;;;;;;;;;;;;;;;;4994717;28;1911;-37
2023/01/01 04:47:16;;;;;;;;;;;;;;;;;;4994046;28;970;-38
2023/01/01 04:49:44;;;;;;;;;;;;;;;;;;4995196;28;1004;-38
2023/01/01 04:52:12;;;;;;;;;;;;;;;;;;4994883;28;1090;-37
2023/01/01 04:54:39;;;;;;;;;;;;;;;;;;4994848;28;910;-38
2023/01/01 04:57:06;;;;;;;;;;;;;;;;;;4994639;28;1062;-37
2023/01/01 04:59:33;;;;;;;;;;;;;;;;;;4994770;28;974;-37
2023/01/01 05:02:00;;;;;;;;;;;;;;;;;;4994796;28;950;-37
2023/01/01 05:04:28;;;;;;;;;;;;;;;;;;4994488;28;1940;-38
2023/01/01 05:06:55;;;;;;;;;;;;;;;;;;4993478;28;1088;-38
2023/01/01 05:09:22;;;;;;;;;;;;;;;;;;4994526;28;1017;-37
2023/01/01 05:11:50;;;;;;;;;;;;;;;;;;4994488;28;941;-38
2023/01/01 05:14:17;;;;;;;;;;;;;;;;;;4994786;28;1010;-39
2023/01/01 05:16:44;;;;;;;;;;;;;;;;;;4994375;28;1220;-37
2023/01/01 05:19:11;;;;;;;;;;;;;;;;;;4994436;28;1151;-39
2023/01/01 05:21:39;;;;;;;;;;;;;;;;;;4994382;28;1053;-40
2023/01/01 05:24:08;;;;;;;;;;;;;;;;;;4993914;28;1279;-38
2023/01/01 05:26:37;;;;;;;;;;;;;;;;;;4993710;28;1910;-38
2023/01/01 05:29:05;;;;;;;;;;;;;;;;;;4994297;28;1051;-38
2023/01/01 05:31:41;;;;;;;;;;;;;;;;;;4994257;28;1010;-38
2023/01/01 05:34:08;;;;;;;;;;;;;;;;;;4994107;28;1297;-38
2023/01/01 05:36:41;;;;;;;;;;;;;;;;;;4994005;28;1007;-38
2023/01/01 05:39:10;;;;;;;;;;;;;;;;;;4993930;28;1093;-39
2023/01/01 05:41:38;;;;;;;;;;;;;;;;;;4992622;28;1308;-38
2023/01/01 05:44:07;;;;;;;;;;;;;;;;;;4992623;28;1285;-39
2023/01/01 05:46:35;;;;;;;;;;;;;;;;;;4992728;28;1914;-39
2023/01/01 05:49:02;;;;;;;;;;;;;;;;;;4993959;28;1167;-38
2023/01/01 05:51:29;;;;;;;;;;;;;;;;;;4993889;28;1105;-38
2023/01/01 05:53:57;;;;;;;;;;;;;;;;;;4993825;28;931;-39
2023/01/01 05:56:25;;;;;;;;;;;;;;;;;;4993727;28;1029;-38
2023/01/01 05:58:52;;;;;;;;;;;;;;;;;;4993852;28;1103;-39
2023/01/01 06:01:24;;;;;;;;;;;;;;;;;;4993556;28;1055;-38
2023/01/01 06:03:52;;;;;;;;;;;;;;;;;;4993700;28;1088;-38
2023/01/01 06:06:21;;;;;;;;;;;;;;;;;;4993692;28;1969;-38
2023/01/01 06:08:52;;;;;;;;;;;;;;;;;;4993752;28;1060;-38
2023/01/01 06:11:19;;;;;;;;;;;;;;;;;;4993672;28;952;-38
2023/01/01 06:13:47;;;;;;;;;;;;;;;;;;4993288;28;1111;-38
2023/01/01 06:16:14;;;;;;;;;;;;;;;;;;4993164;28;1047;-38
2023/01/01 06:18:41;;;;;;;;;;;;;;;;;;4993317;28;1061;-37
2023/01/01 06:21:11;;;;;;;;;;;;;;;;;;4993372;28;1064;-38
2023/01/01 06:23:40;;;;;;;;;;;;;;;;;;4993197;28;1005;-38
2023/01/01 06:26:17;;;;;;;;;;;;;;;;;;4993112;28;1918;-38
2023/01/01 06:28:45;;;;;;;;;;;;;;;;;;4993019;28;914;-38
2023/01/01 06:31:13;;;;;;;;;;;;;;;;;;4992996;28;1127;-38
2023/01/01 06:33:40;;;;;;;;;;;;;;;;;;4992601;28;1184;-38
2023/01/01 06:36:09;;;;;;;;;;;;;;;;;;4992728;28;1133;-39
2023/01/01 06:38:39;;;;;;;;;;;;;;;;;;4992933;28;1059;-38
2023/01/01 06:41:07;;;;;;;;;;;;;;;;;;4992829;28;951;-39
2023/01/01 06:43:35;;;;;;;;;;;;;;;;;;4992553;28;1109;-38
2023/01/01 06:46:06;;;;;;;;;;;;;;;;;;4992692;28;1985;-39
2023/01/01 06:48:35;;;;;;;;;;;;;;;;;;4992785;28;1132;-38
2023/01/01 06:51:06;;;;;;;;;;;;;;;;;;4992794;28;1054;-38
2023/01/01 06:53:33;;;;;;;;;;;;;;;;;;4992573;28;1002;-37
2023/01/01 06:56:01;;;;;;;;;;;;;;;;;;4992483;28;1166;-38
2023/01/01 06:58:28;;;;;;;;;;;;;;;;;;4992692;28;1032;-38
2023/01/01 07:01:03;;;;;;;;;;;;;;;;;;4991389;28;2455;-38
2023/01/01 07:03:34;;;;;;;;;;;;;;;;;;4992545;28;980;-41
2023/01/01 07:06:02;;;;;;;;;;;;;;;;;;4975101;28;1910;-37
2023/01/01 07:08:29;;;;;;;;;;;;;;;;;;4992240;28;1065;-38
2023/01/01 07:10:56;;;;;;;;;;;;;;;;;;4992368;28;999;-39
2023/01/01 07:13:24;;;;;;;;;;;;;;;;;;4992618;28;1166;-38
2023/01/01 07:15:51;;;;;;;;;;;;;;;;;;4992263;28;1053;-38
2023/01/01 07:18:23;;;;;;;;;;;;;;;;;;4974989;28;1053;-39
2023/01/01 07:20:50;;;;;;;;;;;;;;;;;;4992158;28;919;-39
2023/01/01 07:23:19;;;;;;;;;;;;;;;;;;4992188;28;1054;-39
2023/01/01 07:25:47;;;;;;;;;;;;;;;;;;4991985;28;1988;-39
2023/01/01 07:28:14;;;;;;;;;;;;;;;;;;4992041;28;1067;-42
2023/01/01 07:30:42;;;;;;;;;;;;;;;;;;4992094;28;942;-39
2023/01/01 07:33:13;;;;;;;;;;;;;;;;;;4991000;28;1271;-39
2023/01/01 07:35:40;;;;;;;;;;;;;;;;;;4991983;28;886;-38
2023/01/01 07:38:07;;;;;;;;;;;;;;;;;;4991980;28;1015;-38
2023/01/01 07:40:34;;;;;;;;;;;;;;;;;;4991953;28;1050;-38
2023/01/01 07:43:02;;;;;;;;;;;;;;;;;;4991871;28;1188;-38
2023/01/01 07:45:29;;;;;;;;;;;;;;;;;;4991868;28;1973;-39
2023/01/01 07:47:57;;;;;;;;;;;;;;;;;;4992094;28;933;-39
2023/01/01 07:50:25;;;;;;;;;;;;;;;;;;4991944;28;1111;-39
2023/01/01 07:52:54;;;;;;;;;;;;;;;;;;4991678;28;1600;-38
2023/01/01 07:55:21;;;;;;;;;;;;;;;;;;4991846;28;1034;-38
2023/01/01 07:57:48;;;;;;;;;;;;;;;;;;4991842;28;923;-38
2023/01/01 08:00:17;;;;;;;;;;;;;;;;;;4991537;28;1313;-38
2023/01/01 08:02:44;;;;;;;;;;;;;;;;;;4991599;28;926;-38
2023/01/01 08:05:11;;;;;;;;;;;;;;;;;;4991460;28;1902;-40
2023/01/01 08:07:38;;;;;;;;;;;;;;;;;;4991717;28;1365;-38
2023/01/01 08:10:06;;;;;;;;;;;;;;;;;;4991617;28;1437;-38
2023/01/01 08:12:33;;;;;;;;;;;;;;;;;;4991698;28;1170;-38
2023/01/01 08:15:01;;;;;;;;;;;;;;;;;;4991644;28;1069;-38
2023/01/01 08:17:28;;;;;;;;;;;;;;;;;;4991681;28;1011;-38
2023/01/01 08:19:55;;;;;;;;;;;;;;;;;;4991731;28;882;-38
2023/01/01 08:22:22;;;;;;;;;;;;;;;;;;4990510;28;1348;-39
2023/01/01 08:24:49;;;;;;;;;;;;;;;;;;4991713;28;1010;-39
2023/01/01 08:27:16;;;;;;;;;;;;;;;;;;4991594;28;2342;-39
2023/01/01 08:29:44;;;;;;;;;;;;;;;;;;4991245;28;1384;-38
2023/01/01 08:32:12;;;;;;;;;;;;;;;;;;4991752;28;1253;-38
2023/01/01 08:34:39;;;;;;;;;;;;;;;;;;4991218;28;1403;-38
2023/01/01 08:37:11;;;;;;;;;;;;;;;;;;4991231;28;988;-38
2023/01/01 08:39:39;;;;;;;;;;;;;;;;;;4991435;28;1253;-38
2023/01/01 08:42:06;;;;;;;;;;;;;;;;;;4995563;28;1238;-39
2023/01/01 08:44:38;;;;;;;;;;;;;;;;;;5010935;28;927;-39
2023/01/01 08:47:05;;;;;;;;;;;;;;;;;;5010715;28;1906;-39
2023/01/01 08:49:32;;;;;;;;;;;;;;;;;;5011279;28;1091;-39
2023/01/01 08:52:00;;;;;;;;;;;;;;;;;;5011036;28;925;-38
2023/01/01 08:54:27;;;;;;;;;;;;;;;;;;5010873;28;1213;-38
2023/01/01 08:56:54;;;;;;;;;;;;;;;;;;5010700;28;947;-39
2023/01/01 08:59:22;;;;;;;;;;;;;;;;;;5014379;28;978;-38
2023/01/01 09:01:49;;;;;;;;;;;;;;;;;;5014376;28;1162;-39
2023/01/01 09:04:16;;;;;;;;;;;;;;;;;;5014369;28;1016;-38
2023/01/01 09:06:43;;;;;;;;;;;;;;;;;;5014264;28;1983;-38
2023/01/01 09:09:11;;;;;;;;;;;;;;;;;;5014169;28;927;-38
2023/01/01 09:11:38;;;;;;;;;;;;;;;;;;5014205;28;1127;-39
2023/01/01 09:14:06;;;;;;;;;;;;;;;;;;5014129;28;995;-39
2023/01/01 09:16:33;;;;;;;;;;;;;;;;;;5014210;28;1085;-39
2023/01/01 09:19:04;;;;;;;;;;;;;;;;;;5014155;28;1085;-38
2023/01/01 09:21:31;;;;;;;;;;;;;;;;;;5014196;28;1069;-38
2023/01/01 09:23:58;;;;;;;;;;;;;;;;;;5013824;28;995;-40
2023/01/01 09:26:26;;;;;;;;;;;;;;;;;;5013902;28;1916;-38
2023/01/01 09:28:53;;;;;;;;;;;;;;;;;;5014082;28;1432;-39
2023/01/01 09:31:20;;;;;;;;;;;;;;;;;;5013899;28;1045;-39
2023/01/01 09:33:47;;;;;;;;;;;;;;;;;;5000149;28;1176;-39
2023/01/01 09:36:25;;;;;;;;;;;;;;;;;;4993924;28;907;-39
2023/01/01 09:38:53;;;;;;;;;;;;;;;;;;4994153;28;1022;-39
2023/01/01 09:41:29;;;;;;;;;;;;;;;;;;4994067;28;1214;-39
2023/01/01 09:44:08;;;;;;;;;;;;;;;;;;4993960;28;1102;-39
2023/01/01 09:46:36;;;;;;;;;;;;;;;;;;4994180;28;1922;-38
2023/01/01 09:49:11;;;;;;;;;;;;;;;;;;4993918;28;974;-38
2023/01/01 09:51:39;;;;;;;;;;;;;;;;;;4994043;28;1321;-39
2023/01/01 09:54:14;;;;;;;;;;;;;;;;;;4993697;28;994;-38
2023/01/01 09:56:43;;;;;;;;;;;;;;;;;;4992604;28;1097;-39
2023/01/01 09:59:12;;;;;;;;;;;;;;;;;;4993506;28;1100;-39
2023/01/01 10:01:53;;;;;;;;;;;;;;;;;;4993578;28;1023;-39
2023/01/01 10:04:39;;;;;;;;;;;;;;;;;;4993527;28;1074;-39
2023/01/01 10:07:24;;;;;;;;;;;;;;;;;;4993372;28;1906;-39
2023/01/01 10:10:09;;;;;;;;;;;;;;;;;;4992475;28;1175;-39
2023/01/01 10:12:47;;;;;;;;;;;;;;;;;;4993571;28;1092;-39
2023/01/01 10:15:18;;;;;;;;;;;;;;;;;;4993299;28;1402;-39
2023/01/01 10:17:47;;;;;;;;;;;;;;;;;;4993205;28;1288;-39
2023/01/01 10:20:20;;;;;;;;;;;;;;;;;;4993164;28;1345;-39
2023/01/01 10:22:50;;;;;;;;;;;;;;;;;;4993351;28;1114;-39
2023/01/01 10:25:25;;;;;;;;;;;;;;;;;;4992405;28;1003;-39
2023/01/01 10:27:52;;;;;;;;;;;;;;;;;;4993076;28;1969;-39
2023/01/01 10:30:25;;;;;;;;;;;;;;;;;;4993171;28;1096;-39
2023/01/01 10:32:53;;;;;;;;;;;;;;;;;;4992908;28;1160;-40
2023/01/01 10:35:34;;;;;;;;;;;;;;;;;;4992876;28;1002;-39
2023/01/01 10:38:03;;;;;;;;;;;;;;;;;;4993021;28;1074;-39
2023/01/01 10:40:36;;;;;;;;;;;;;;;;;;4993160;28;898;-39
2023/01/01 10:43:05;;;;;;;;;;;;;;;;;;4992397;28;1255;-39
2023/01/01 10:45:36;;;;;;;;;;;;;;;;;;4992874;28;1033;-39
2023/01/01 10:48:13;;;;;;;;;;;;;;;;;;4992795;28;1972;-39
2023/01/01 10:50:48;;;;;;;;;;;;;;;;;;4992823;28;1076;-39
2023/01/01 10:53:24;;;;;;;;;;;;;;;;;;4992638;28;1041;-39
2023/01/01 10:55:57;;;;;;;;;;;;;;;;;;4992583;28;1357;-39
2023/01/01 10:58:26;;;;;;;;;;;;;;;;;;4992623;28;1013;-39
2023/01/01 11:00:57;;;;;;;;;;;;;;;;;;4992379;28;1316;-40
2023/01/01 11:03:24;;;;;;;;;;;;;;;;;;4992561;28;1197;-39
2023/01/01 11:06:12;;;;;;;;;;;;;;;;;;4991502;28;1902;-39
2023/01/01 11:08:40;;;;;;;;;;;;;;;;;;4992741;28;959;-39
2023/01/01 11:11:18;;;;;;;;;;;;;;;;;;4992422;28;1218;-39
2023/01/01 11:13:50;;;;;;;;;;;;;;;;;;4992254;28;1001;-39
2023/01/01 11:16:18;;;;;;;;;;;;;;;;;;4992100;28;1056;-39
2023/01/01 11:18:46;;;;;;;;;;;;;;;;;;4992243;28;1006;-39
2023/01/01 11:21:18;;;;;;;;;;;;;;;;;;4991865;28;968;-39
2023/01/01 11:23:46;;;;;;;;;;;;;;;;;;4992240;28;955;-39
2023/01/01 11:26:14;;;;;;;;;;;;;;;;;;4991879;28;1910;-40
2023/01/01 11:28:42;;;;;;;;;;;;;;;;;;4992417;28;1098;-39
2023/01/01 11:31:14;;;;;;;;;;;;;;;;;;4992027;28;936;-39
2023/01/01 11:33:49;;;;;;;;;;;;;;;;;;4992177;28;1098;-39
2023/01/01 11:36:31;;;;;;;;;;;;;;;;;;4991107;28;1554;-39
2023/01/01 11:39:07;;;;;;;;;;;;;;;;;;4992049;28;1105;-40
2023/01/01 11:41:44;;;;;;;;;;;;;;;;;;4991595;28;1157;-40
2023/01/01 11:44:13;;;;;;;;;;;;;;;;;;4992008;28;914;-40
2023/01/01 11:46:43;;;;;;;;;;;;;;;;;;4991849;28;1908;-40
2023/01/01 11:49:18;;;;;;;;;;;;;;;;;;4991978;28;1065;-39
2023/01/01 11:51:46;;;;;;;;;;;;;;;;;;4990851;28;1101;-39
2023/01/01 11:54:39;;;;;;;;;;;;;;;;;;4991969;28;1266;-40
2023/01/01 11:57:17;;;;;;;;;;;;;;;;;;4989110;28;1671;-41
2023/01/01 11:59:46;;;;;;;;;;;;;;;;;;4991996;28;1188;-39
2023/01/01 12:02:25;;;;;;;;;;;;;;;;;;4991609;28;1217;-39
2023/01/01 12:04:56;;;;;;;;;;;;;;;;;;4991672;28;1139;-39
2023/01/01 12:07:27;;;;;;;;;;;;;;;;;;4991444;28;1902;-39
2023/01/01 12:09:56;;;;;;;;;;;;;;;;;;4991710;28;1538;-39
2023/01/01 12:13:03;;;;;;;;;;;;;;;;;;4991970;28;1955;-39
2023/01/01 12:15:34;;;;;;;;;;;;;;;;;;4969844;28;1968;-39
2023/01/01 12:18:20;;;;;;;;;;;;;;;;;;4954189;28;2269;-39
2023/01/01 12:20:59;;;;;;;;;;;;;;;;;;4976664;28;2069;-39
2023/01/01 12:23:26;;;;;;;;;;;;;;;;;;4991419;28;2030;-40
2023/01/01 12:26:00;;;;;;;;;;;;;;;;;;4991622;28;1487;-39
2023/01/01 12:28:50;;;;;;;;;;;;;;;;;;4991367;28;2167;-39
2023/01/01 12:31:20;;;;;;;;;;;;;;;;;;4972421;28;1765;-40
2023/01/01 12:34:00;;;;;;;;;;;;;;;;;;4993442;28;1829;-40
2023/01/01 12:36:27;;;;;;;;;;;;;;;;;;4995281;28;2061;-42
2023/01/01 12:39:27;;;;;;;;;;;;;;;;;;4995304;28;1965;-40
2023/01/01 12:41:59;;;;;;;;;;;;;;;;;;4994592;28;1806;-40
2023/01/01 12:44:26;;;;;;;;;;;;;;;;;;4995009;28;1408;-40
2023/01/01 12:47:12;;;;;;;;;;;;;;;;;;4995047;28;1894;-41
2023/01/01 12:49:55;;;;;;;;;;;;;;;;;;4993697;28;2128;-40
2023/01/01 12:52:52;;;;;;;;;;;;;;;;;;4994802;28;1493;-40
2023/01/01 12:55:35;;;;;;;;;;;;;;;;;;4982791;28;2304;-40
2023/01/01 12:58:07;;;;;;;;;;;;;;;;;;4994934;28;1781;-40
2023/01/01 13:00:36;;;;;;;;;;;;;;;;;;4993976;28;1898;-40
2023/01/01 13:03:39;;;;;;;;;;;;;;;;;;4994715;28;1736;-40
2023/01/01 13:06:07;;;;;;;;;;;;;;;;;;4984793;28;2182;-40
2023/01/01 13:08:35;;;;;;;;;;;;;;;;;;4994637;28;2258;-40
2023/01/01 13:11:04;;;;;;;;;;;;;;;;;;4994330;28;1976;-40
2023/01/01 13:13:31;;;;;;;;;;;;;;;;;;4994665;28;1907;-40
2023/01/01 13:15:59;;;;;;;;;;;;;;;;;;4994417;28;1830;-39
2023/01/01 13:18:33;;;;;;;;;;;;;;;;;;4994483;28;1732;-39
2023/01/01 13:21:15;;;;;;;;;;;;;;;;;;4994516;28;1968;-39
2023/01/01 13:23:43;;;;;;;;;;;;;;;;;;4994421;28;1695;-40
2023/01/01 13:26:16;;;;;;;;;;;;;;;;;;4994365;28;1733;-40
2023/01/01 13:28:43;;;;;;;;;;;;;;;;;;4993339;28;2100;-40
2023/01/01 13:31:11;;;;;;;;;;;;;;;;;;4994281;28;1615;-40
2023/01/01 13:33:38;;;;;;;;;;;;;;;;;;4993753;28;1929;-39
2023/01/01 13:36:13;;;;;;;;;;;;;;;;;;4977055;28;1843;-39
2023/01/01 13:38:42;;;;;;;;;;;;;;;;;;4994095;28;1976;-39
2023/01/01 13:41:25;;;;;;;;;;;;;;;;;;4993926;28;1976;-38
2023/01/01 13:44:09;;;;;;;;;;;;;;;;;;4992596;28;2209;-38
2023/01/01 13:46:56;;;;;;;;;;;;;;;;;;4994007;28;2089;-39
2023/01/01 13:49:44;;;;;;;;;;;;;;;;;;4993892;28;2289;-39
2023/01/01 13:52:29;;;;;;;;;;;;;;;;;;4993898;28;1949;-38
2023/01/01 13:55:15;;;;;;;;;;;;;;;;;;4993627;28;1610;-39
2023/01/01 13:57:42;;;;;;;;;;;;;;;;;;4993853;28;1629;-39
2023/01/01 14:00:20;;;;;;;;;;;;;;;;;;4993756;28;1967;-39
2023/01/01 14:02:57;;;;;;;;;;;;;;;;;;4993688;28;1725;-39
2023/01/01 14:05:30;;;;;;;;;;;;;;;;;;4993554;28;1881;-39
2023/01/01 14:07:57;;;;;;;;;;;;;;;;;;4993585;28;2072;-39
2023/01/01 14:10:34;;;;;;;;;;;;;;;;;;4992600;28;1417;-39
2023/01/01 14:13:04;;;;;;;;;;;;;;;;;;4993572;28;1834;-39
2023/01/01 14:15:33;;;;;;;;;;;;;;;;;;4993287;28;1962;-39
2023/01/01 14:18:01;;;;;;;;;;;;;;;;;;4993414;28;1614;-39
2023/01/01 14:20:49;;;;;;;;;;;;;;;;;;4993364;28;1418;-39
2023/01/01 14:23:28;;;;;;;;;;;;;;;;;;4983510;28;2384;-38
2023/01/01 14:25:55;;;;;;;;;;;;;;;;;;4993066;28;1297;-40
2023/01/01 14:28:30;;;;;;;;;;;;;;;;;;4993351;28;1912;-39
2023/01/01 14:30:59;;;;;;;;;;;;;;;;;;4992314;28;1495;-39
2023/01/01 14:33:30;;;;;;;;;;;;;;;;;;4992992;28;1598;-40
2023/01/01 14:35:59;;;;;;;;;;;;;;;;;;4993018;28;1617;-39
2023/01/01 14:38:30;;;;;;;;;;;;;;;;;;4992702;28;2294;-40
2023/01/01 14:41:10;;;;;;;;;;;;;;;;;;4992950;28;2014;-39
2023/01/01 14:43:42;;;;;;;;;;;;;;;;;;4992651;28;2109;-39
2023/01/01 14:46:14;;;;;;;;;;;;;;;;;;4992773;28;1228;-39
2023/01/01 14:48:45;;;;;;;;;;;;;;;;;;4992714;28;2157;-39
2023/01/01 14:51:19;;;;;;;;;;;;;;;;;;4993259;28;2427;-39
2023/01/01 14:53:47;;;;;;;;;;;;;;;;;;4992622;28;1813;-39
2023/01/01 14:56:43;;;;;;;;;;;;;;;;;;4992150;28;1936;-39
2023/01/01 14:59:21;;;;;;;;;;;;;;;;;;4980256;28;1719;-39
2023/01/01 15:02:02;;;;;;;;;;;;;;;;;;4992313;28;1553;-40
2023/01/01 15:04:29;;;;;;;;;;;;;;;;;;4992685;28;1943;-39
2023/01/01 15:06:58;;;;;;;;;;;;;;;;;;4992534;28;2090;-39
2023/01/01 15:09:29;;;;;;;;;;;;;;;;;;4992496;28;2037;-39
2023/01/01 15:11:57;;;;;;;;;;;;;;;;;;4992376;28;1713;-39
2023/01/01 15:14:36;;;;;;;;;;;;;;;;;;4992344;28;2139;-40
2023/01/01 15:17:10;;;;;;;;;;;;;;;;;;4992378;28;1835;-39
2023/01/01 15:19:42;;;;;;;;;;;;;;;;;;4992280;28;2109;-40
2023/01/01 15:22:15;;;;;;;;;;;;;;;;;;4992015;28;1585;-39
2023/01/01 15:24:43;;;;;;;;;;;;;;;;;;4974541;28;2132;-38
2023/01/01 15:27:29;;;;;;;;;;;;;;;;;;4992135;28;1914;-38
2023/01/01 15:29:57;;;;;;;;;;;;;;;;;;4992390;28;2116;-39
2023/01/01 15:32:27;;;;;;;;;;;;;;;;;;4992138;28;2113;-40
2023/01/01 15:34:55;;;;;;;;;;;;;;;;;;4992049;28;1972;-40
2023/01/01 15:37:28;;;;;;;;;;;;;;;;;;4992017;28;1628;-40
2023/01/01 15:39:57;;;;;;;;;;;;;;;;;;4992398;28;1859;-40
2023/01/01 15:42:32;;;;;;;;;;;;;;;;;;4991820;28;2070;-39
2023/01/01 15:45:18;;;;;;;;;;;;;;;;;;4991756;28;1461;-39
2023/01/01 15:47:46;;;;;;;;;;;;;;;;;;4991881;28;1981;-39
2023/01/01 15:50:16;;;;;;;;;;;;;;;;;;4991672;28;2202;-39
2023/01/01 15:52:44;;;;;;;;;;;;;;;;;;4991811;28;1967;-39
2023/01/01 15:55:16;;;;;;;;;;;;;;;;;;4991761;28;1888;-39
2023/01/01 15:57:44;;;;;;;;;;;;;;;;;;4991627;28;1527;-39
2023/01/01 16:00:22;;;;;;;;;;;;;;;;;;4991052;28;1831;-39
2023/01/01 16:02:51;;;;;;;;;;;;;;;;;;4991784;28;1587;-38
2023/01/01 16:05:22;;;;;;;;;;;;;;;;;;4991499;28;2018;-38
2023/01/01 16:08:00;;;;;;;;;;;;;;;;;;4993215;28;1953;-38
2023/01/01 16:10:28;;;;;;;;;;;;;;;;;;4996022;28;1694;-39
2023/01/01 16:12:55;;;;;;;;;;;;;;;;;;4995795;28;2102;-38
2023/01/01 16:15:22;;;;;;;;;;;;;;;;;;4995894;28;1842;-38
2023/01/01 16:17:50;;;;;;;;;;;;;;;;;;4995581;28;1634;-38
2023/01/01 16:20:18;;;;;;;;;;;;;;;;;;4995554;28;1992;-38
2023/01/01 16:22:45;;;;;;;;;;;;;;;;;;4995719;28;1584;-39
2023/01/01 16:25:13;;;;;;;;;;;;;;;;;;4995565;28;2273;-40
2023/01/01 16:27:41;;;;;;;;;;;;;;;;;;4995514;28;1980;-39
2023/01/01 16:30:09;;;;;;;;;;;;;;;;;;4995428;28;1955;-38
2023/01/01 16:32:39;;;;;;;;;;;;;;;;;;4995362;28;1393;-39
2023/01/01 16:35:10;;;;;;;;;;;;;;;;;;4995087;28;2012;-40
2023/01/01 16:37:38;;;;;;;;;;;;;;;;;;4978086;28;2154;-38
2023/01/01 16:40:06;;;;;;;;;;;;;;;;;;4995285;28;1886;-39
2023/01/01 16:42:36;;;;;;;;;;;;;;;;;;4995091;28;1899;-39
2023/01/01 16:45:04;;;;;;;;;;;;;;;;;;4993756;28;1501;-39
2023/01/01 16:47:31;;;;;;;;;;;;;;;;;;4995149;28;2015;-39
2023/01/01 16:49:58;;;;;;;;;;;;;;;;;;4995335;28;2051;-39
2023/01/01 16:52:25;;;;;;;;;;;;;;;;;;4994987;28;2189;-39
2023/01/01 16:54:59;;;;;;;;;;;;;;;;;;4995109;28;1403;-39
2023/01/01 16:57:28;;;;;;;;;;;;;;;;;;4994859;28;1911;-39
2023/01/01 16:59:55;;;;;;;;;;;;;;;;;;4995425;28;1766;-39
2023/01/01 17:02:22;;;;;;;;;;;;;;;;;;4994641;28;1383;-39
2023/01/01 17:04:50;;;;;;;;;;;;;;;;;;4994898;28;1964;-40
2023/01/01 17:07:18;;;;;;;;;;;;;;;;;;4994824;28;2099;-39
2023/01/01 17:09:46;;;;;;;;;;;;;;;;;;4994839;28;2036;-39
2023/01/01 17:12:13;;;;;;;;;;;;;;;;;;4994484;28;2146;-39
2023/01/01 17:14:40;;;;;;;;;;;;;;;;;;4994574;28;1637;-39
2023/01/01 17:17:07;;;;;;;;;;;;;;;;;;4994499;28;2062;-39
2023/01/01 17:19:35;;;;;;;;;;;;;;;;;;4994285;28;1448;-39
2023/01/01 17:22:04;;;;;;;;;;;;;;;;;;4994707;28;1473;-39
2023/01/01 17:24:31;;;;;;;;;;;;;;;;;;4994600;28;1838;-39
2023/01/01 17:26:58;;;;;;;;;;;;;;;;;;4994503;28;2041;-38
2023/01/01 17:29:25;;;;;;;;;;;;;;;;;;4993889;28;1993;-40
2023/01/01 17:31:53;;;;;;;;;;;;;;;;;;4994381;28;1861;-39
2023/01/01 17:34:20;;;;;;;;;;;;;;;;;;4994115;28;1817;-39
2023/01/01 17:36:48;;;;;;;;;;;;;;;;;;4994040;28;1980;-38